sensor_id;sensor_type;location;lat;lon;timestamp;pressure;altitude;pressure_sealevel;temperature;humidity
66524;BME280;53350;52.210;5.160;2023-02-15T00:02:26;102998.63;;;6.15;69.22
66524;BME280;53350;52.210;5.160;2023-02-15T00:04:54;102997.72;;;6.13;69.28
66524;BME280;53350;52.210;5.160;2023-02-15T00:07:21;102994.13;;;6.09;69.54
66524;BME280;53350;52.210;5.160;2023-02-15T00:09:47;103003.44;;;6.07;69.66
66524;BME280;53350;52.210;5.160;2023-02-15T00:12:14;102995.59;;;6.04;69.25
66524;BME280;53350;52.210;5.160;2023-02-15T00:14:41;102998.03;;;6.01;69.30
66524;BME280;53350;52.210;5.160;2023-02-15T00:17:08;103001.25;;;5.97;69.53
66524;BME280;53350;52.210;5.160;2023-02-15T00:19:34;102998.50;;;5.92;69.07
66524;BME280;53350;52.210;5.160;2023-02-15T00:22:02;102995.81;;;5.89;69.22
66524;BME280;53350;52.210;5.160;2023-02-15T00:24:28;102993.19;;;5.87;69.13
66524;BME280;53350;52.210;5.160;2023-02-15T00:26:55;102980.41;;;5.87;68.97
66524;BME280;53350;52.210;5.160;2023-02-15T00:29:21;102985.53;;;5.87;69.17
66524;BME280;53350;52.210;5.160;2023-02-15T00:31:48;102975.25;;;5.86;69.52
66524;BME280;53350;52.210;5.160;2023-02-15T00:34:16;102982.03;;;5.85;69.65
66524;BME280;53350;52.210;5.160;2023-02-15T00:36:43;102977.78;;;5.86;69.46
66524;BME280;53350;52.210;5.160;2023-02-15T00:39:12;102973.47;;;5.85;69.47
66524;BME280;53350;52.210;5.160;2023-02-15T00:41:39;102975.97;;;5.83;69.23
66524;BME280;53350;52.210;5.160;2023-02-15T00:44:06;102977.47;;;5.78;69.28
66524;BME280;53350;52.210;5.160;2023-02-15T00:46:33;102964.41;;;5.72;69.30
66524;BME280;53350;52.210;5.160;2023-02-15T00:49:00;102969.41;;;5.69;69.10
66524;BME280;53350;52.210;5.160;2023-02-15T00:51:27;102966.78;;;5.67;69.36
66524;BME280;53350;52.210;5.160;2023-02-15T00:53:53;102968.41;;;5.65;69.30
66524;BME280;53350;52.210;5.160;2023-02-15T00:56:21;102963.25;;;5.64;69.29
66524;BME280;53350;52.210;5.160;2023-02-15T00:58:47;102969.16;;;5.63;69.55
66524;BME280;53350;52.210;5.160;2023-02-15T01:01:16;102969.03;;;5.60;69.10
66524;BME280;53350;52.210;5.160;2023-02-15T01:03:44;102962.16;;;5.58;69.48
66524;BME280;53350;52.210;5.160;2023-02-15T01:06:12;102962.03;;;5.55;69.33
66524;BME280;53350;52.210;5.160;2023-02-15T01:08:38;102956.78;;;5.52;69.18
66524;BME280;53350;52.210;5.160;2023-02-15T01:11:06;102966.88;;;5.49;68.94
66524;BME280;53350;52.210;5.160;2023-02-15T01:13:35;102963.31;;;5.46;69.34
66524;BME280;53350;52.210;5.160;2023-02-15T01:16:02;102958.97;;;5.43;69.00
66524;BME280;53350;52.210;5.160;2023-02-15T01:18:29;102952.91;;;5.41;68.90
66524;BME280;53350;52.210;5.160;2023-02-15T01:20:56;102949.41;;;5.39;68.88
66524;BME280;53350;52.210;5.160;2023-02-15T01:23:23;102937.19;;;5.32;68.97
66524;BME280;53350;52.210;5.160;2023-02-15T01:25:49;102939.59;;;5.29;68.99
66524;BME280;53350;52.210;5.160;2023-02-15T01:28:16;102940.34;;;5.26;69.35
66524;BME280;53350;52.210;5.160;2023-02-15T01:30:44;102941.06;;;5.23;68.73
66524;BME280;53350;52.210;5.160;2023-02-15T01:33:10;102935.75;;;5.19;68.62
66524;BME280;53350;52.210;5.160;2023-02-15T01:35:43;102927.97;;;5.16;69.26
66524;BME280;53350;52.210;5.160;2023-02-15T01:38:09;102930.47;;;5.14;68.85
66524;BME280;53350;52.210;5.160;2023-02-15T01:40:36;102930.28;;;5.11;69.09
66524;BME280;53350;52.210;5.160;2023-02-15T01:43:09;102917.06;;;5.00;68.81
66524;BME280;53350;52.210;5.160;2023-02-15T01:45:36;102925.66;;;5.02;69.18
66524;BME280;53350;52.210;5.160;2023-02-15T01:48:05;102915.31;;;4.99;69.14
66524;BME280;53350;52.210;5.160;2023-02-15T01:50:33;102919.69;;;5.02;68.88
66524;BME280;53350;52.210;5.160;2023-02-15T01:53:03;102925.59;;;5.01;69.01
66524;BME280;53350;52.210;5.160;2023-02-15T01:55:34;102909.00;;;4.91;68.73
66524;BME280;53350;52.210;5.160;2023-02-15T01:58:02;102918.53;;;4.95;69.00
66524;BME280;53350;52.210;5.160;2023-02-15T02:00:29;102924.41;;;4.93;68.57
66524;BME280;53350;52.210;5.160;2023-02-15T02:02:56;102917.41;;;4.88;68.90
66524;BME280;53350;52.210;5.160;2023-02-15T02:05:24;102909.75;;;4.88;68.89
66524;BME280;53350;52.210;5.160;2023-02-15T02:07:53;102901.94;;;4.85;68.75
66524;BME280;53350;52.210;5.160;2023-02-15T02:10:23;102901.94;;;4.85;69.05
66524;BME280;53350;52.210;5.160;2023-02-15T02:12:51;102902.69;;;4.83;68.93
66524;BME280;53350;52.210;5.160;2023-02-15T02:15:21;102905.03;;;4.78;69.05
66524;BME280;53350;52.210;5.160;2023-02-15T02:18:03;102904.97;;;4.77;68.83
66524;BME280;53350;52.210;5.160;2023-02-15T02:23:51;102884.41;;;4.74;68.94
66524;BME280;53350;52.210;5.160;2023-02-15T02:30:02;102885.94;;;4.70;68.55
66524;BME280;53350;52.210;5.160;2023-02-15T02:33:09;102878.22;;;4.68;68.88
66524;BME280;53350;52.210;5.160;2023-02-15T02:35:48;102873.84;;;4.66;68.84
66524;BME280;53350;52.210;5.160;2023-02-15T02:38:21;102878.94;;;4.66;69.31
66524;BME280;53350;52.210;5.160;2023-02-15T02:40:56;102878.94;;;4.66;69.36
66524;BME280;53350;52.210;5.160;2023-02-15T02:43:33;102874.56;;;4.63;69.05
66524;BME280;53350;52.210;5.160;2023-02-15T02:46:05;102871.06;;;4.61;69.52
66524;BME280;53350;52.210;5.160;2023-02-15T02:48:34;102874.50;;;4.62;69.34
66524;BME280;53350;52.210;5.160;2023-02-15T02:51:01;102872.84;;;4.62;69.45
66524;BME280;53350;52.210;5.160;2023-02-15T02:53:30;102866.84;;;4.62;69.34
66524;BME280;53350;52.210;5.160;2023-02-15T02:56:01;102864.28;;;4.62;69.49
66524;BME280;53350;52.210;5.160;2023-02-15T02:58:31;102854.84;;;4.59;69.73
66524;BME280;53350;52.210;5.160;2023-02-15T03:01:02;102865.09;;;4.61;69.64
66524;BME280;53350;52.210;5.160;2023-02-15T03:03:36;102858.13;;;4.57;69.62
66524;BME280;53350;52.210;5.160;2023-02-15T03:06:06;102860.00;;;4.61;69.64
66524;BME280;53350;52.210;5.160;2023-02-15T03:08:38;102836.72;;;4.55;69.85
66524;BME280;53350;52.210;5.160;2023-02-15T03:11:07;102843.94;;;4.63;69.73
66524;BME280;53350;52.210;5.160;2023-02-15T03:13:35;102840.50;;;4.63;69.83
66524;BME280;53350;52.210;5.160;2023-02-15T03:16:02;102835.34;;;4.61;69.63
66524;BME280;53350;52.210;5.160;2023-02-15T03:18:52;102834.41;;;4.59;70.00
66524;BME280;53350;52.210;5.160;2023-02-15T03:21:27;102837.84;;;4.60;70.29
66524;BME280;53350;52.210;5.160;2023-02-15T03:24:00;102828.53;;;4.62;70.31
66524;BME280;53350;52.210;5.160;2023-02-15T03:26:30;102827.75;;;4.63;70.43
66524;BME280;53350;52.210;5.160;2023-02-15T03:28:58;102822.66;;;4.63;70.52
66524;BME280;53350;52.210;5.160;2023-02-15T03:31:28;102824.53;;;4.67;70.83
66524;BME280;53350;52.210;5.160;2023-02-15T03:33:59;102832.31;;;4.70;70.93
66524;BME280;53350;52.210;5.160;2023-02-15T03:36:32;102827.34;;;4.73;70.97
66524;BME280;53350;52.210;5.160;2023-02-15T03:39:07;102813.84;;;4.76;71.50
66524;BME280;53350;52.210;5.160;2023-02-15T03:41:39;102818.97;;;4.76;71.13
66524;BME280;53350;52.210;5.160;2023-02-15T03:44:11;102818.97;;;4.76;71.50
66524;BME280;53350;52.210;5.160;2023-02-15T03:46:43;102820.72;;;4.77;71.40
66524;BME280;53350;52.210;5.160;2023-02-15T03:49:19;102815.59;;;4.77;71.09
66524;BME280;53350;52.210;5.160;2023-02-15T03:51:49;102815.59;;;4.77;71.07
66524;BME280;53350;52.210;5.160;2023-02-15T03:54:20;102820.66;;;4.75;70.81
66524;BME280;53350;52.210;5.160;2023-02-15T03:57:02;102807.81;;;4.74;70.96
66524;BME280;53350;52.210;5.160;2023-02-15T03:59:46;102807.66;;;4.70;71.00
66524;BME280;53350;52.210;5.160;2023-02-15T04:02:36;102803.31;;;4.68;71.15
66524;BME280;53350;52.210;5.160;2023-02-15T04:05:06;102804.13;;;4.67;71.05
66524;BME280;53350;52.210;5.160;2023-02-15T04:07:32;102805.72;;;4.65;70.71
66524;BME280;53350;52.210;5.160;2023-02-15T04:09:58;102805.66;;;4.63;71.05
66524;BME280;53350;52.210;5.160;2023-02-15T04:12:42;102800.47;;;4.62;71.08
66524;BME280;53350;52.210;5.160;2023-02-15T04:15:11;102798.69;;;4.59;70.77
66524;BME280;53350;52.210;5.160;2023-02-15T04:17:56;102800.28;;;4.57;70.82
66524;BME280;53350;52.210;5.160;2023-02-15T04:20:23;102797.59;;;4.54;70.85
66524;BME280;53350;52.210;5.160;2023-02-15T04:23:08;102794.13;;;4.52;70.80
66524;BME280;53350;52.210;5.160;2023-02-15T04:25:52;102794.97;;;4.52;70.99
66524;BME280;53350;52.210;5.160;2023-02-15T04:28:18;102793.34;;;4.55;71.20
66524;BME280;53350;52.210;5.160;2023-02-15T04:30:46;102789.22;;;4.57;71.56
66524;BME280;53350;52.210;5.160;2023-02-15T04:33:12;102786.72;;;4.58;71.82
66524;BME280;53350;52.210;5.160;2023-02-15T04:35:40;102780.81;;;4.59;72.30
66524;BME280;53350;52.210;5.160;2023-02-15T04:38:06;102775.84;;;4.62;72.74
66524;BME280;53350;52.210;5.160;2023-02-15T04:40:33;102776.09;;;4.68;72.90
66524;BME280;53350;52.210;5.160;2023-02-15T04:42:59;102775.44;;;4.73;72.90
66524;BME280;53350;52.210;5.160;2023-02-15T04:45:25;102773.06;;;4.77;73.23
66524;BME280;53350;52.210;5.160;2023-02-15T04:47:53;102765.59;;;4.82;73.39
66524;BME280;53350;52.210;5.160;2023-02-15T04:50:19;102767.34;;;4.83;73.79
66524;BME280;53350;52.210;5.160;2023-02-15T04:52:47;102769.19;;;4.85;74.08
66524;BME280;53350;52.210;5.160;2023-02-15T04:55:13;102771.91;;;4.90;74.03
66524;BME280;53350;52.210;5.160;2023-02-15T04:57:40;102775.47;;;4.94;74.26
66524;BME280;53350;52.210;5.160;2023-02-15T05:00:07;102765.41;;;4.97;74.58
66524;BME280;53350;52.210;5.160;2023-02-15T05:02:34;102762.06;;;4.99;74.50
66524;BME280;53350;52.210;5.160;2023-02-15T05:05:01;102763.88;;;5.02;74.08
66524;BME280;53350;52.210;5.160;2023-02-15T05:07:27;102768.94;;;5.00;74.09
66524;BME280;53350;52.210;5.160;2023-02-15T05:09:55;102767.19;;;4.99;74.38
66524;BME280;53350;52.210;5.160;2023-02-15T05:12:21;102762.97;;;5.00;74.17
66524;BME280;53350;52.210;5.160;2023-02-15T05:14:48;102774.84;;;4.99;74.25
66524;BME280;53350;52.210;5.160;2023-02-15T05:17:14;102779.22;;;5.02;74.15
66524;BME280;53350;52.210;5.160;2023-02-15T05:19:40;102773.31;;;5.03;74.31
66524;BME280;53350;52.210;5.160;2023-02-15T05:22:07;102774.16;;;5.03;74.35
66524;BME280;53350;52.210;5.160;2023-02-15T05:24:33;102773.31;;;5.03;74.20
66524;BME280;53350;52.210;5.160;2023-02-15T05:27:19;102769.00;;;5.02;73.90
66524;BME280;53350;52.210;5.160;2023-02-15T05:30:03;102767.19;;;4.99;73.68
66524;BME280;53350;52.210;5.160;2023-02-15T05:32:30;102765.41;;;4.97;73.67
66524;BME280;53350;52.210;5.160;2023-02-15T05:34:57;102756.78;;;4.95;73.68
66524;BME280;53350;52.210;5.160;2023-02-15T05:37:23;102756.72;;;4.93;73.44
66524;BME280;53350;52.210;5.160;2023-02-15T05:39:49;102761.81;;;4.93;73.62
66524;BME280;53350;52.210;5.160;2023-02-15T05:42:16;102763.47;;;4.91;73.20
66524;BME280;53350;52.210;5.160;2023-02-15T05:44:43;102759.88;;;4.87;73.12
66524;BME280;53350;52.210;5.160;2023-02-15T05:47:10;102757.28;;;4.86;73.48
66524;BME280;53350;52.210;5.160;2023-02-15T05:49:36;102758.97;;;4.85;73.67
66524;BME280;53350;52.210;5.160;2023-02-15T05:52:03;102763.09;;;4.83;73.32
66524;BME280;53350;52.210;5.160;2023-02-15T05:54:30;102761.44;;;4.84;73.72
66524;BME280;53350;52.210;5.160;2023-02-15T05:56:56;102761.50;;;4.85;73.89
66524;BME280;53350;52.210;5.160;2023-02-15T05:59:23;102756.34;;;4.84;74.54
66524;BME280;53350;52.210;5.160;2023-02-15T06:01:50;102757.28;;;4.86;74.13
66524;BME280;53350;52.210;5.160;2023-02-15T06:04:17;102747.91;;;4.86;74.27
66524;BME280;53350;52.210;5.160;2023-02-15T06:06:43;102746.25;;;4.87;74.43
66524;BME280;53350;52.210;5.160;2023-02-15T06:09:10;102744.50;;;4.86;74.51
66524;BME280;53350;52.210;5.160;2023-02-15T06:11:37;102744.44;;;4.84;74.93
66524;BME280;53350;52.210;5.160;2023-02-15T06:14:03;102740.97;;;4.82;75.04
66524;BME280;53350;52.210;5.160;2023-02-15T06:16:29;102740.06;;;4.82;74.83
66524;BME280;53350;52.210;5.160;2023-02-15T06:18:57;102737.44;;;4.80;75.15
66524;BME280;53350;52.210;5.160;2023-02-15T06:21:26;102733.84;;;4.75;75.18
66524;BME280;53350;52.210;5.160;2023-02-15T06:23:52;102740.75;;;4.78;75.15
66524;BME280;53350;52.210;5.160;2023-02-15T06:26:19;102740.69;;;4.76;75.30
66524;BME280;53350;52.210;5.160;2023-02-15T06:28:45;102739.81;;;4.76;75.46
66524;BME280;53350;52.210;5.160;2023-02-15T06:31:12;102732.16;;;4.76;75.29
66524;BME280;53350;52.210;5.160;2023-02-15T06:33:38;102733.78;;;4.74;74.69
66524;BME280;53350;52.210;5.160;2023-02-15T06:36:06;102738.66;;;4.69;74.81
66524;BME280;53350;52.210;5.160;2023-02-15T06:38:32;102743.72;;;4.67;75.64
66524;BME280;53350;52.210;5.160;2023-02-15T06:41:00;102747.91;;;4.65;75.24
66524;BME280;53350;52.210;5.160;2023-02-15T06:43:26;102749.44;;;4.62;75.46
66524;BME280;53350;52.210;5.160;2023-02-15T06:45:53;102751.19;;;4.63;76.21
66524;BME280;53350;52.210;5.160;2023-02-15T06:48:19;102753.78;;;4.64;75.83
66524;BME280;53350;52.210;5.160;2023-02-15T06:50:46;102750.50;;;4.67;75.84
66524;BME280;53350;52.210;5.160;2023-02-15T06:53:13;102742.06;;;4.68;75.81
66524;BME280;53350;52.210;5.160;2023-02-15T06:55:40;102735.19;;;4.67;75.82
66524;BME280;53350;52.210;5.160;2023-02-15T06:58:06;102742.84;;;4.67;75.80
66524;BME280;53350;52.210;5.160;2023-02-15T07:00:33;102740.25;;;4.65;75.87
66524;BME280;53350;52.210;5.160;2023-02-15T07:02:59;102741.03;;;4.64;76.16
66524;BME280;53350;52.210;5.160;2023-02-15T07:05:27;102739.34;;;4.65;75.90
66524;BME280;53350;52.210;5.160;2023-02-15T07:07:56;102731.69;;;4.65;76.05
66524;BME280;53350;52.210;5.160;2023-02-15T07:10:23;102731.69;;;4.65;75.95
66524;BME280;53350;52.210;5.160;2023-02-15T07:12:50;102730.81;;;4.64;76.05
66524;BME280;53350;52.210;5.160;2023-02-15T07:15:17;102738.47;;;4.64;76.06
66524;BME280;53350;52.210;5.160;2023-02-15T07:17:45;102735.13;;;4.65;76.16
66524;BME280;53350;52.210;5.160;2023-02-15T07:20:14;102730.88;;;4.66;76.00
66524;BME280;53350;52.210;5.160;2023-02-15T07:22:41;102731.69;;;4.65;76.61
66524;BME280;53350;52.210;5.160;2023-02-15T07:25:09;102727.47;;;4.65;76.44
66524;BME280;53350;52.210;5.160;2023-02-15T07:27:38;102730.22;;;4.70;76.61
66524;BME280;53350;52.210;5.160;2023-02-15T07:30:06;102712.41;;;4.72;76.48
66524;BME280;53350;52.210;5.160;2023-02-15T07:32:33;102711.53;;;4.71;76.47
66524;BME280;53350;52.210;5.160;2023-02-15T07:35:00;102712.53;;;4.75;76.86
66524;BME280;53350;52.210;5.160;2023-02-15T07:37:27;102715.16;;;4.76;76.75
66524;BME280;53350;52.210;5.160;2023-02-15T07:39:53;102711.00;;;4.78;76.94
66524;BME280;53350;52.210;5.160;2023-02-15T07:42:20;102713.78;;;4.84;77.07
66524;BME280;53350;52.210;5.160;2023-02-15T07:44:48;102710.69;;;4.92;76.97
66524;BME280;53350;52.210;5.160;2023-02-15T07:47:15;102709.28;;;4.98;76.87
66524;BME280;53350;52.210;5.160;2023-02-15T07:49:41;102706.09;;;5.04;76.28
66524;BME280;53350;52.210;5.160;2023-02-15T07:52:08;102703.59;;;5.05;75.93
66524;BME280;53350;52.210;5.160;2023-02-15T07:54:34;102704.41;;;5.04;76.08
66524;BME280;53350;52.210;5.160;2023-02-15T07:57:00;102704.53;;;5.08;77.03
66524;BME280;53350;52.210;5.160;2023-02-15T07:59:27;102708.22;;;5.14;76.51
66524;BME280;53350;52.210;5.160;2023-02-15T08:01:55;102700.78;;;5.20;76.20
66524;BME280;53350;52.210;5.160;2023-02-15T08:04:22;102694.31;;;5.29;76.05
66524;BME280;53350;52.210;5.160;2023-02-15T08:06:52;102690.06;;;5.29;76.08
66524;BME280;53350;52.210;5.160;2023-02-15T08:09:18;102701.69;;;5.44;76.03
66524;BME280;53350;52.210;5.160;2023-02-15T08:11:47;102691.59;;;5.47;75.50
66524;BME280;53350;52.210;5.160;2023-02-15T08:14:14;102690.16;;;5.53;75.24
66524;BME280;53350;52.210;5.160;2023-02-15T08:16:43;102692.94;;;5.60;75.07
66524;BME280;53350;52.210;5.160;2023-02-15T08:19:12;102677.75;;;5.64;74.98
66524;BME280;53350;52.210;5.160;2023-02-15T08:21:41;102678.81;;;5.69;74.82
66524;BME280;53350;52.210;5.160;2023-02-15T08:24:08;102675.69;;;5.77;75.14
66524;BME280;53350;52.210;5.160;2023-02-15T08:26:36;102677.75;;;5.87;74.62
66524;BME280;53350;52.210;5.160;2023-02-15T08:29:04;102672.91;;;5.95;74.71
66524;BME280;53350;52.210;5.160;2023-02-15T08:31:31;102673.16;;;6.01;74.58
66524;BME280;53350;52.210;5.160;2023-02-15T08:33:58;102674.22;;;6.06;73.91
66524;BME280;53350;52.210;5.160;2023-02-15T08:36:27;102676.06;;;6.10;73.94
66524;BME280;53350;52.210;5.160;2023-02-15T08:38:55;102676.28;;;6.16;74.17
66524;BME280;53350;52.210;5.160;2023-02-15T08:41:23;102669.75;;;6.24;74.06
66524;BME280;53350;52.210;5.160;2023-02-15T08:43:51;102657.81;;;6.25;74.27
66524;BME280;53350;52.210;5.160;2023-02-15T08:46:19;102667.63;;;6.37;73.88
66524;BME280;53350;52.210;5.160;2023-02-15T08:48:46;102666.97;;;6.42;73.70
66524;BME280;53350;52.210;5.160;2023-02-15T08:51:14;102653.31;;;6.42;74.23
66524;BME280;53350;52.210;5.160;2023-02-15T08:53:44;102654.41;;;6.50;73.53
66524;BME280;53350;52.210;5.160;2023-02-15T08:56:11;102665.03;;;6.61;73.78
66524;BME280;53350;52.210;5.160;2023-02-15T08:58:38;102662.63;;;6.66;73.50
66524;BME280;53350;52.210;5.160;2023-02-15T09:01:11;102662.81;;;6.72;73.38
66524;BME280;53350;52.210;5.160;2023-02-15T09:03:38;102663.94;;;6.80;73.42
66524;BME280;53350;52.210;5.160;2023-02-15T09:06:05;102660.75;;;6.87;73.58
66524;BME280;53350;52.210;5.160;2023-02-15T09:08:32;102658.28;;;6.90;73.85
66524;BME280;53350;52.210;5.160;2023-02-15T09:11:11;102655.72;;;6.90;73.71
66524;BME280;53350;52.210;5.160;2023-02-15T09:13:37;102663.50;;;6.93;73.46
66524;BME280;53350;52.210;5.160;2023-02-15T09:16:05;102664.31;;;6.91;73.67
66524;BME280;53350;52.210;5.160;2023-02-15T09:18:33;102653.44;;;6.98;73.55
66524;BME280;53350;52.210;5.160;2023-02-15T09:21:07;102644.19;;;7.03;73.68
66524;BME280;53350;52.210;5.160;2023-02-15T09:23:33;102643.56;;;7.10;72.99
66524;BME280;53350;52.210;5.160;2023-02-15T09:26:05;102648.78;;;7.13;73.06
66524;BME280;53350;52.210;5.160;2023-02-15T09:28:33;102647.09;;;7.14;72.75
66524;BME280;53350;52.210;5.160;2023-02-15T09:31:09;102637.81;;;7.18;72.92
66524;BME280;53350;52.210;5.160;2023-02-15T09:33:36;102651.09;;;7.33;73.21
66524;BME280;53350;52.210;5.160;2023-02-15T09:36:03;102649.78;;;7.46;72.33
66524;BME280;53350;52.210;5.160;2023-02-15T09:38:30;102648.06;;;7.46;71.99
66524;BME280;53350;52.210;5.160;2023-02-15T09:41:07;102648.94;;;7.47;71.92
66524;BME280;53350;52.210;5.160;2023-02-15T09:43:42;102646.50;;;7.52;72.01
66524;BME280;53350;52.210;5.160;2023-02-15T09:46:27;102641.53;;;7.56;72.29
66524;BME280;53350;52.210;5.160;2023-02-15T09:49:03;102640.72;;;7.59;71.68
66524;BME280;53350;52.210;5.160;2023-02-15T09:51:57;102639.13;;;7.62;71.93
66524;BME280;53350;52.210;5.160;2023-02-15T09:54:42;102642.66;;;7.66;71.52
66524;BME280;53350;52.210;5.160;2023-02-15T09:57:19;102647.16;;;7.75;71.39
66524;BME280;53350;52.210;5.160;2023-02-15T09:59:59;102645.69;;;7.83;71.10
66524;BME280;53350;52.210;5.160;2023-02-15T10:02:41;102644.25;;;7.93;70.95
66524;BME280;53350;52.210;5.160;2023-02-15T10:05:21;102648.03;;;8.06;71.00
66524;BME280;53350;52.210;5.160;2023-02-15T10:08:25;102648.81;;;8.03;70.26
66524;BME280;53350;52.210;5.160;2023-02-15T10:11:03;102654.06;;;8.08;70.33
66524;BME280;53350;52.210;5.160;2023-02-15T10:13:52;102656.88;;;8.15;70.83
66524;BME280;53350;52.210;5.160;2023-02-15T10:16:33;102664.84;;;8.26;69.89
66524;BME280;53350;52.210;5.160;2023-02-15T10:19:12;102658.16;;;8.31;69.53
66524;BME280;53350;52.210;5.160;2023-02-15T10:21:54;102669.50;;;8.41;69.28
66524;BME280;53350;52.210;5.160;2023-02-15T10:24:46;102665.25;;;8.42;69.35
66524;BME280;53350;52.210;5.160;2023-02-15T10:27:20;102663.78;;;8.50;69.29
66524;BME280;53350;52.210;5.160;2023-02-15T10:29:54;102660.53;;;8.57;69.50
66524;BME280;53350;52.210;5.160;2023-02-15T10:32:26;102658.56;;;8.47;68.88
66524;BME280;53350;52.210;5.160;2023-02-15T10:35:00;102662.94;;;8.51;69.18
66524;BME280;53350;52.210;5.160;2023-02-15T10:37:46;102664.84;;;8.58;69.64
66524;BME280;53350;52.210;5.160;2023-02-15T10:40:25;102660.03;;;8.70;69.29
66524;BME280;53350;52.210;5.160;2023-02-15T10:43:07;102662.00;;;8.81;68.60
66524;BME280;53350;52.210;5.160;2023-02-15T10:45:42;102667.41;;;8.93;67.76
66524;BME280;53350;52.210;5.160;2023-02-15T10:48:29;102641.75;;;8.95;67.18
66524;BME280;53350;52.210;5.160;2023-02-15T10:51:02;102651.44;;;9.07;67.48
66524;BME280;53350;52.210;5.160;2023-02-15T10:53:41;102646.44;;;9.11;68.21
66524;BME280;53350;52.210;5.160;2023-02-15T10:56:17;102633.69;;;9.16;68.03
66524;BME280;53350;52.210;5.160;2023-02-15T10:58:54;102616.44;;;9.12;67.62
66524;BME280;53350;52.210;5.160;2023-02-15T11:01:25;102639.88;;;9.24;67.62
66524;BME280;53350;52.210;5.160;2023-02-15T11:04:08;102626.31;;;9.31;67.83
66524;BME280;53350;52.210;5.160;2023-02-15T11:06:39;102621.91;;;9.26;67.15
66524;BME280;53350;52.210;5.160;2023-02-15T11:09:14;102616.91;;;9.33;67.31
66524;BME280;53350;52.210;5.160;2023-02-15T11:11:45;102614.47;;;9.39;67.46
66524;BME280;53350;52.210;5.160;2023-02-15T11:14:16;102611.25;;;9.50;67.12
66524;BME280;53350;52.210;5.160;2023-02-15T11:16:47;102602.69;;;9.49;67.33
66524;BME280;53350;52.210;5.160;2023-02-15T11:19:19;102608.94;;;9.62;66.81
66524;BME280;53350;52.210;5.160;2023-02-15T11:21:49;102588.38;;;9.64;66.62
66524;BME280;53350;52.210;5.160;2023-02-15T11:24:19;102592.06;;;9.77;66.74
66524;BME280;53350;52.210;5.160;2023-02-15T11:26:49;102579.94;;;9.71;66.64
66524;BME280;53350;52.210;5.160;2023-02-15T11:29:22;102587.13;;;9.87;66.57
66524;BME280;53350;52.210;5.160;2023-02-15T11:31:53;102578.59;;;9.90;66.09
66524;BME280;53350;52.210;5.160;2023-02-15T11:34:27;102577.78;;;9.92;65.71
66524;BME280;53350;52.210;5.160;2023-02-15T11:36:59;102581.47;;;10.07;65.80
66524;BME280;53350;52.210;5.160;2023-02-15T11:39:26;102567.09;;;10.18;66.04
66524;BME280;53350;52.210;5.160;2023-02-15T11:41:57;102563.88;;;10.32;65.45
66524;BME280;53350;52.210;5.160;2023-02-15T11:44:28;102552.94;;;10.45;65.49
66524;BME280;53350;52.210;5.160;2023-02-15T11:46:56;102551.31;;;10.49;65.16
66524;BME280;53350;52.210;5.160;2023-02-15T11:49:27;102543.72;;;10.59;64.57
66524;BME280;53350;52.210;5.160;2023-02-15T11:51:56;102540.41;;;10.68;63.79
66524;BME280;53350;52.210;5.160;2023-02-15T11:54:28;102537.00;;;10.69;64.83
66524;BME280;53350;52.210;5.160;2023-02-15T11:56:58;102538.78;;;10.73;64.12
66524;BME280;53350;52.210;5.160;2023-02-15T11:59:29;102526.69;;;10.68;63.72
66524;BME280;53350;52.210;5.160;2023-02-15T12:01:58;102534.50;;;10.74;63.97
66524;BME280;53350;52.210;5.160;2023-02-15T12:04:30;102537.13;;;10.78;64.17
66524;BME280;53350;52.210;5.160;2023-02-15T12:07:01;102541.56;;;10.89;63.67
66524;BME280;53350;52.210;5.160;2023-02-15T12:09:32;102517.53;;;10.90;64.14
66524;BME280;53350;52.210;5.160;2023-02-15T12:12:19;102521.16;;;11.04;63.50
66524;BME280;53350;52.210;5.160;2023-02-15T12:14:47;102512.69;;;11.14;62.51
66524;BME280;53350;52.210;5.160;2023-02-15T12:17:15;102517.84;;;11.14;63.66
66524;BME280;53350;52.210;5.160;2023-02-15T12:19:44;102522.19;;;11.17;62.83
66524;BME280;53350;52.210;5.160;2023-02-15T12:22:21;102519.59;;;11.17;63.17
66524;BME280;53350;52.210;5.160;2023-02-15T12:24:49;102523.91;;;11.17;63.32
66524;BME280;53350;52.210;5.160;2023-02-15T12:27:17;102516.25;;;11.24;63.20
66524;BME280;53350;52.210;5.160;2023-02-15T12:29:47;102500.84;;;11.32;62.92
66524;BME280;53350;52.210;5.160;2023-02-15T12:32:22;102499.16;;;11.34;62.94
66524;BME280;53350;52.210;5.160;2023-02-15T12:34:53;102500.06;;;11.38;63.09
66524;BME280;53350;52.210;5.160;2023-02-15T12:37:23;102500.13;;;11.47;63.05
66524;BME280;53350;52.210;5.160;2023-02-15T12:39:54;102495.91;;;11.52;62.88
66524;BME280;53350;52.210;5.160;2023-02-15T12:42:21;102494.31;;;11.65;62.29
66524;BME280;53350;52.210;5.160;2023-02-15T12:45:00;102492.63;;;11.70;62.23
66524;BME280;53350;52.210;5.160;2023-02-15T12:47:27;102498.75;;;11.78;62.74
66524;BME280;53350;52.210;5.160;2023-02-15T12:50:10;102501.38;;;11.84;61.69
66524;BME280;53350;52.210;5.160;2023-02-15T12:52:42;102494.63;;;11.94;61.50
66524;BME280;53350;52.210;5.160;2023-02-15T12:55:11;102493.81;;;12.03;61.42
66524;BME280;53350;52.210;5.160;2023-02-15T12:57:43;102491.28;;;12.09;61.61
66524;BME280;53350;52.210;5.160;2023-02-15T13:00:24;102498.22;;;12.15;61.11
66524;BME280;53350;52.210;5.160;2023-02-15T13:02:53;102491.38;;;12.20;61.62
66524;BME280;53350;52.210;5.160;2023-02-15T13:05:25;102485.38;;;12.21;60.90
66524;BME280;53350;52.210;5.160;2023-02-15T13:07:56;102487.06;;;12.19;60.40
66524;BME280;53350;52.210;5.160;2023-02-15T13:10:25;102488.81;;;12.20;60.51
66524;BME280;53350;52.210;5.160;2023-02-15T13:12:54;102481.03;;;12.17;60.42
66524;BME280;53350;52.210;5.160;2023-02-15T13:15:26;102484.47;;;12.17;60.62
66524;BME280;53350;52.210;5.160;2023-02-15T13:17:55;102477.59;;;12.18;61.03
66524;BME280;53350;52.210;5.160;2023-02-15T13:20:23;102469.00;;;12.21;60.94
66524;BME280;53350;52.210;5.160;2023-02-15T13:22:56;102472.47;;;12.23;60.85
66524;BME280;53350;52.210;5.160;2023-02-15T13:25:27;102479.34;;;12.24;60.66